sensor_id;sensor_type;location;lat;lon;timestamp;P1;P4;P2;P0;N10;N4;N25;N1;N05;TS
66725;SPS30;53638;51.062;5.804;2022-11-09T00:01:42;2.03;2.03;2.03;1.92;15.31;15.31;15.31;15.28;13.58;0.45
66725;SPS30;53638;51.062;5.804;2022-11-09T00:04:09;1.99;1.98;1.98;1.87;14.93;14.93;14.92;14.90;13.24;0.44
66725;SPS30;53638;51.062;5.804;2022-11-09T00:06:36;1.91;1.91;1.91;1.80;14.41;14.41;14.40;14.38;12.79;0.44
66725;SPS30;53638;51.062;5.804;2022-11-09T00:09:04;1.99;1.99;1.99;1.88;15.01;15.00;15.00;14.98;13.32;0.44
66725;SPS30;53638;51.062;5.804;2022-11-09T00:11:35;1.84;1.84;1.83;1.73;13.80;13.80;13.79;13.77;12.23;0.45
66725;SPS30;53638;51.062;5.804;2022-11-09T00:14:04;2.31;2.30;2.28;2.14;17.12;17.12;17.11;17.07;15.15;0.45
66725;SPS30;53638;51.062;5.804;2022-11-09T00:16:31;1.97;1.97;1.95;1.83;14.64;14.64;14.63;14.60;12.95;0.46
66725;SPS30;53638;51.062;5.804;2022-11-09T00:19:03;2.08;2.07;2.06;1.93;15.38;15.38;15.37;15.33;13.60;0.47
66725;SPS30;53638;51.062;5.804;2022-11-09T00:21:32;1.86;1.86;1.84;1.73;13.81;13.80;13.80;13.76;12.21;0.47
66725;SPS30;53638;51.062;5.804;2022-11-09T00:23:58;2.14;2.13;2.12;1.98;15.84;15.84;15.83;15.79;14.01;0.47
66725;SPS30;53638;51.062;5.804;2022-11-09T00:26:27;2.14;2.13;2.10;1.96;15.66;15.65;15.64;15.59;13.81;0.48
66725;SPS30;53638;51.062;5.804;2022-11-09T00:28:53;1.98;1.97;1.95;1.82;14.50;14.50;14.49;14.44;12.79;0.48
66725;SPS30;53638;51.062;5.804;2022-11-09T00:31:24;2.15;2.14;2.12;1.99;15.88;15.87;15.86;15.82;14.03;0.46
66725;SPS30;53638;51.062;5.804;2022-11-09T00:33:51;2.06;2.05;2.04;1.91;15.21;15.21;15.20;15.16;13.44;0.47
66725;SPS30;53638;51.062;5.804;2022-11-09T00:36:25;1.93;1.92;1.90;1.78;14.22;14.22;14.21;14.17;12.56;0.46
66725;SPS30;53638;51.062;5.804;2022-11-09T00:38:53;2.00;1.99;1.96;1.81;14.48;14.48;14.47;14.41;12.74;0.46
66725;SPS30;53638;51.062;5.804;2022-11-09T00:44:12;1.97;1.95;1.90;1.74;13.89;13.88;13.87;13.79;12.16;0.48
66725;SPS30;53638;51.062;5.804;2022-11-09T00:46:38;1.98;1.96;1.91;1.75;13.99;13.99;13.98;13.90;12.26;0.48
66725;SPS30;53638;51.062;5.804;2022-11-09T00:49:07;2.38;2.35;2.29;2.09;16.68;16.67;16.66;16.56;14.58;0.48
66725;SPS30;53638;51.062;5.804;2022-11-09T00:51:33;2.18;2.15;2.09;1.90;15.20;15.19;15.18;15.08;13.27;0.46
66725;SPS30;53638;51.062;5.804;2022-11-09T00:53:59;1.85;1.84;1.82;1.70;13.58;13.58;13.57;13.53;11.99;0.44
66725;SPS30;53638;51.062;5.804;2022-11-09T00:56:28;2.13;2.11;2.08;1.92;15.34;15.34;15.32;15.26;13.49;0.45
66725;SPS30;53638;51.062;5.804;2022-11-09T00:58:54;1.96;1.93;1.88;1.71;13.70;13.69;13.68;13.59;11.97;0.47
66725;SPS30;53638;51.062;5.804;2022-11-09T01:01:21;2.19;2.17;2.11;1.94;15.46;15.45;15.44;15.35;13.53;0.48
66725;SPS30;53638;51.062;5.804;2022-11-09T01:03:50;2.03;2.00;1.94;1.78;14.18;14.18;14.16;14.07;12.39;0.49
66725;SPS30;53638;51.062;5.804;2022-11-09T01:06:19;1.75;1.72;1.68;1.53;12.22;12.21;12.20;12.13;10.68;0.48
66725;SPS30;53638;51.062;5.804;2022-11-09T01:08:48;1.96;1.93;1.88;1.73;13.79;13.79;13.78;13.70;12.08;0.48
66725;SPS30;53638;51.062;5.804;2022-11-09T01:11:20;1.68;1.66;1.62;1.49;11.87;11.87;11.86;11.80;10.41;0.47
66725;SPS30;53638;51.062;5.804;2022-11-09T01:13:50;1.79;1.77;1.73;1.59;12.70;12.70;12.69;12.62;11.14;0.48
66725;SPS30;53638;51.062;5.804;2022-11-09T01:16:20;1.62;1.60;1.56;1.44;11.48;11.48;11.47;11.41;10.07;0.48
66725;SPS30;53638;51.062;5.804;2022-11-09T01:18:50;1.79;1.77;1.72;1.57;12.54;12.54;12.52;12.45;10.96;0.48
66725;SPS30;53638;51.062;5.804;2022-11-09T01:21:18;1.85;1.82;1.74;1.56;12.49;12.49;12.47;12.36;10.84;0.50
66725;SPS30;53638;51.062;5.804;2022-11-09T01:23:44;1.98;1.95;1.87;1.69;13.48;13.48;13.46;13.35;11.72;0.49
66725;SPS30;53638;51.062;5.804;2022-11-09T01:26:11;1.77;1.74;1.68;1.52;12.17;12.16;12.15;12.06;10.60;0.48
66725;SPS30;53638;51.062;5.804;2022-11-09T01:28:39;1.67;1.65;1.61;1.48;11.82;11.82;11.81;11.74;10.36;0.48
66725;SPS30;53638;51.062;5.804;2022-11-09T01:31:09;1.55;1.53;1.50;1.39;11.09;11.09;11.08;11.03;9.75;0.47
66725;SPS30;53638;51.062;5.804;2022-11-09T01:33:38;1.81;1.79;1.75;1.62;12.90;12.90;12.89;12.82;11.32;0.47
66725;SPS30;53638;51.062;5.804;2022-11-09T01:36:08;1.81;1.79;1.74;1.59;12.71;12.70;12.69;12.62;11.12;0.48
66725;SPS30;53638;51.062;5.804;2022-11-09T01:38:43;1.78;1.75;1.70;1.54;12.33;12.33;12.31;12.23;10.76;0.49
66725;SPS30;53638;51.062;5.804;2022-11-09T01:41:14;1.98;1.94;1.87;1.69;13.50;13.49;13.47;13.37;11.74;0.50
66725;SPS30;53638;51.062;5.804;2022-11-09T01:43:43;1.88;1.84;1.77;1.58;12.62;12.61;12.59;12.48;10.93;0.52
66725;SPS30;53638;51.062;5.804;2022-11-09T01:46:15;1.75;1.70;1.61;1.42;11.36;11.35;11.33;11.21;9.77;0.52
66725;SPS30;53638;51.062;5.804;2022-11-09T01:51:23;1.81;1.77;1.69;1.50;11.97;11.96;11.94;11.82;10.33;0.52
66725;SPS30;53638;51.062;5.804;2022-11-09T01:54:17;1.90;1.86;1.77;1.58;12.63;12.63;12.61;12.49;10.93;0.51
66725;SPS30;53638;51.062;5.804;2022-11-09T01:56:49;1.73;1.69;1.61;1.43;11.46;11.45;11.43;11.32;9.89;0.51
66725;SPS30;53638;51.062;5.804;2022-11-09T01:59:23;1.92;1.87;1.77;1.57;12.54;12.54;12.51;12.38;10.81;0.52
66725;SPS30;53638;51.062;5.804;2022-11-09T02:01:57;2.20;2.14;2.01;1.75;13.97;13.97;13.93;13.76;11.95;0.51
66725;SPS30;53638;51.062;5.804;2022-11-09T02:04:27;2.13;2.06;1.91;1.64;13.10;13.09;13.06;12.86;11.12;0.54
66725;SPS30;53638;51.062;5.804;2022-11-09T02:07:09;2.15;2.07;1.91;1.63;13.04;13.03;12.99;12.78;11.03;0.55
66725;SPS30;53638;51.062;5.804;2022-11-09T02:09:37;2.22;2.14;1.98;1.69;13.51;13.50;13.46;13.25;11.44;0.54
66725;SPS30;53638;51.062;5.804;2022-11-09T02:12:16;2.15;2.08;1.92;1.64;13.11;13.10;13.06;12.85;11.10;0.54
66725;SPS30;53638;51.062;5.804;2022-11-09T02:14:44;2.03;1.95;1.81;1.55;12.35;12.35;12.31;12.12;10.47;0.56
66725;SPS30;53638;51.062;5.804;2022-11-09T02:17:14;2.20;2.10;1.93;1.62;12.95;12.94;12.90;12.66;10.88;0.57
66725;SPS30;53638;51.062;5.804;2022-11-09T02:20:07;2.20;2.11;1.92;1.61;12.86;12.85;12.81;12.57;10.78;0.58
66725;SPS30;53638;51.062;5.804;2022-11-09T02:22:35;2.50;2.37;2.12;1.73;13.82;13.81;13.75;13.43;11.42;0.59
66725;SPS30;53638;51.062;5.804;2022-11-09T02:25:04;2.59;2.45;2.19;1.78;14.22;14.21;14.15;13.81;11.73;0.57
66725;SPS30;53638;51.062;5.804;2022-11-09T02:27:30;2.54;2.41;2.14;1.72;13.73;13.72;13.66;13.31;11.27;0.58
66725;SPS30;53638;51.062;5.804;2022-11-09T02:29:57;2.30;2.16;1.90;1.50;12.01;12.00;11.94;11.60;9.76;0.59
66725;SPS30;53638;51.062;5.804;2022-11-09T02:32:26;2.61;2.45;2.13;1.66;13.25;13.24;13.17;12.76;10.68;0.61
66725;SPS30;53638;51.062;5.804;2022-11-09T02:35:00;2.59;2.45;2.16;1.71;13.67;13.65;13.59;13.22;11.14;0.61
66725;SPS30;53638;51.062;5.804;2022-11-09T02:37:31;2.42;2.28;2.00;1.58;12.60;12.59;12.52;12.17;10.23;0.61
66725;SPS30;53638;51.062;5.804;2022-11-09T02:40:11;2.38;2.24;1.96;1.53;12.28;12.27;12.20;11.85;9.95;0.60
66725;SPS30;53638;51.062;5.804;2022-11-09T02:45:59;2.25;2.12;1.86;1.46;11.67;11.66;11.60;11.26;9.46;0.61
66725;SPS30;53638;51.062;5.804;2022-11-09T02:48:25;2.53;2.39;2.10;1.66;13.30;13.28;13.22;12.85;10.82;0.61
66725;SPS30;53638;51.062;5.804;2022-11-09T02:51:16;2.34;2.24;2.02;1.67;13.36;13.35;13.30;13.03;11.13;0.58
66725;SPS30;53638;51.062;5.804;2022-11-09T02:53:45;2.24;2.13;1.91;1.56;12.51;12.49;12.44;12.17;10.36;0.59
66725;SPS30;53638;51.062;5.804;2022-11-09T02:56:11;2.15;2.03;1.80;1.44;11.49;11.48;11.43;11.13;9.41;0.60
66725;SPS30;53638;51.062;5.804;2022-11-09T02:58:37;2.01;1.90;1.70;1.38;11.04;11.03;10.99;10.73;9.11;0.59
66725;SPS30;53638;51.062;5.804;2022-11-09T03:01:04;2.25;2.13;1.90;1.54;12.28;12.27;12.22;11.93;10.12;0.59
66725;SPS30;53638;51.062;5.804;2022-11-09T03:03:30;2.45;2.31;2.03;1.61;12.87;12.86;12.80;12.44;10.48;0.61
66725;SPS30;53638;51.062;5.804;2022-11-09T03:05:56;2.30;2.16;1.90;1.49;11.94;11.92;11.86;11.52;9.69;0.62
66725;SPS30;53638;51.062;5.804;2022-11-09T03:08:22;2.39;2.25;1.99;1.59;12.69;12.68;12.62;12.28;10.36;0.61
66725;SPS30;53638;51.062;5.804;2022-11-09T03:10:52;2.61;2.46;2.17;1.72;13.77;13.75;13.69;13.31;11.22;0.61
66725;SPS30;53638;51.062;5.804;2022-11-09T03:13:21;2.52;2.36;2.06;1.60;12.76;12.75;12.68;12.29;10.27;0.62
66725;SPS30;53638;51.062;5.804;2022-11-09T03:15:47;2.14;2.01;1.76;1.38;11.02;11.01;10.95;10.63;8.92;0.60
66725;SPS30;53638;51.062;5.804;2022-11-09T03:18:13;2.58;2.43;2.14;1.68;13.46;13.45;13.38;13.00;10.93;0.60
66725;SPS30;53638;51.062;5.804;2022-11-09T03:20:42;2.45;2.30;2.01;1.58;12.61;12.60;12.53;12.16;10.21;0.60
66725;SPS30;53638;51.062;5.804;2022-11-09T03:23:26;2.70;2.53;2.20;1.71;13.65;13.64;13.56;13.14;10.98;0.59
66725;SPS30;53638;51.062;5.804;2022-11-09T03:25:55;2.35;2.20;1.90;1.46;11.69;11.68;11.61;11.23;9.35;0.60
66725;SPS30;53638;51.062;5.804;2022-11-09T03:28:22;3.01;2.82;2.46;1.92;15.37;15.36;15.27;14.81;12.41;0.61
66725;SPS30;53638;51.062;5.804;2022-11-09T03:31:28;2.49;2.34;2.04;1.59;12.72;12.70;12.64;12.26;10.27;0.61
66725;SPS30;53638;51.062;5.804;2022-11-09T03:33:46;2.29;2.15;1.88;1.47;11.78;11.76;11.70;11.36;9.52;0.59
66725;SPS30;53638;51.062;5.804;2022-11-09T03:36:13;2.24;2.11;1.86;1.48;11.81;11.80;11.75;11.43;9.63;0.57
66725;SPS30;53638;51.062;5.804;2022-11-09T03:38:39;2.34;2.21;1.96;1.56;12.50;12.49;12.43;12.10;10.22;0.57
66725;SPS30;53638;51.062;5.804;2022-11-09T03:41:06;2.21;2.09;1.86;1.50;12.02;12.01;11.96;11.67;9.89;0.57
66725;SPS30;53638;51.062;5.804;2022-11-09T03:43:34;2.12;2.00;1.75;1.38;11.03;11.02;10.96;10.65;8.95;0.60
66725;SPS30;53638;51.062;5.804;2022-11-09T03:45:59;2.27;2.14;1.87;1.47;11.75;11.74;11.68;11.34;9.52;0.59
66725;SPS30;53638;51.062;5.804;2022-11-09T03:48:25;2.53;2.37;2.07;1.62;12.95;12.93;12.87;12.48;10.46;0.59
66725;SPS30;53638;51.062;5.804;2022-11-09T03:50:54;2.18;2.05;1.79;1.40;11.22;11.21;11.15;10.82;9.07;0.58
66725;SPS30;53638;51.062;5.804;2022-11-09T03:53:22;2.18;2.05;1.81;1.42;11.38;11.37;11.31;10.99;9.25;0.58
66725;SPS30;53638;51.062;5.804;2022-11-09T03:58:40;2.59;2.41;2.07;1.57;12.56;12.54;12.46;12.03;9.97;0.61
66725;SPS30;53638;51.062;5.804;2022-11-09T04:01:09;2.24;2.08;1.78;1.33;10.66;10.64;10.57;10.19;8.41;0.63
66725;SPS30;53638;51.062;5.804;2022-11-09T04:03:35;2.92;2.71;2.30;1.71;13.72;13.70;13.61;13.09;10.78;0.63
66725;SPS30;53638;51.062;5.804;2022-11-09T04:06:02;2.62;2.44;2.09;1.58;12.62;12.61;12.53;12.08;10.00;0.62
66725;SPS30;53638;51.062;5.804;2022-11-09T04:08:28;2.41;2.26;1.95;1.50;12.03;12.01;11.94;11.56;9.64;0.63
66725;SPS30;53638;51.062;5.804;2022-11-09T04:10:55;2.30;2.15;1.86;1.43;11.45;11.44;11.37;11.00;9.17;0.64
66725;SPS30;53638;51.062;5.804;2022-11-09T04:13:21;2.12;1.98;1.71;1.30;10.42;10.41;10.35;10.00;8.31;0.64
66725;SPS30;53638;51.062;5.804;2022-11-09T04:15:47;2.34;2.18;1.87;1.41;11.31;11.30;11.22;10.83;8.97;0.64
66725;SPS30;53638;51.062;5.804;2022-11-09T04:18:14;2.45;2.28;1.95;1.48;11.81;11.79;11.72;11.31;9.36;0.64
66725;SPS30;53638;51.062;5.804;2022-11-09T04:20:42;2.66;2.47;2.12;1.60;12.83;12.82;12.74;12.29;10.18;0.64
66725;SPS30;53638;51.062;5.804;2022-11-09T04:23:11;2.73;2.55;2.19;1.66;13.27;13.26;13.17;12.72;10.55;0.63
66725;SPS30;53638;51.062;5.804;2022-11-09T04:25:40;2.29;2.15;1.86;1.43;11.46;11.44;11.38;11.01;9.19;0.61
66725;SPS30;53638;51.062;5.804;2022-11-09T04:28:10;2.74;2.56;2.23;1.72;13.76;13.75;13.67;13.24;11.06;0.63
66725;SPS30;53638;51.062;5.804;2022-11-09T04:30:41;3.10;2.89;2.48;1.88;15.04;15.02;14.92;14.40;11.94;0.65
66725;SPS30;53638;51.062;5.804;2022-11-09T04:33:07;2.37;2.20;1.87;1.39;11.15;11.13;11.06;10.64;8.76;0.66
66725;SPS30;53638;51.062;5.804;2022-11-09T04:35:34;2.59;2.40;2.03;1.49;11.93;11.92;11.83;11.36;9.31;0.67
66725;SPS30;53638;51.062;5.804;2022-11-09T04:38:02;2.83;2.62;2.19;1.59;12.71;12.69;12.60;12.06;9.82;0.67
66725;SPS30;53638;51.062;5.804;2022-11-09T04:40:31;3.13;2.90;2.45;1.81;14.49;14.47;14.37;13.81;11.33;0.65
66725;SPS30;53638;51.062;5.804;2022-11-09T04:42:59;2.84;2.62;2.19;1.57;12.58;12.57;12.47;11.92;9.68;0.68
66725;SPS30;53638;51.062;5.804;2022-11-09T04:45:28;3.09;2.84;2.36;1.68;13.47;13.44;13.34;12.73;10.29;0.69
66725;SPS30;53638;51.062;5.804;2022-11-09T04:47:56;3.30;3.03;2.52;1.80;14.43;14.41;14.29;13.65;11.05;0.69
66725;SPS30;53638;51.062;5.804;2022-11-09T04:50:23;2.84;2.62;2.18;1.56;12.50;12.48;12.38;11.83;9.58;0.69
66725;SPS30;53638;51.062;5.804;2022-11-09T04:52:50;3.06;2.82;2.35;1.69;13.56;13.54;13.44;12.85;10.43;0.67
66725;SPS30;53638;51.062;5.804;2022-11-09T04:55:16;3.14;2.88;2.39;1.69;13.56;13.53;13.42;12.80;10.33;0.67
66725;SPS30;53638;51.062;5.804;2022-11-09T04:57:42;2.95;2.72;2.26;1.62;12.99;12.97;12.87;12.30;9.97;0.67
66725;SPS30;53638;51.062;5.804;2022-11-09T05:00:09;3.11;2.86;2.36;1.67;13.41;13.39;13.28;12.66;10.21;0.69
66725;SPS30;53638;51.062;5.804;2022-11-09T05:02:35;3.06;2.82;2.34;1.67;13.36;13.34;13.23;12.63;10.21;0.69
66725;SPS30;53638;51.062;5.804;2022-11-09T05:05:02;2.68;2.46;2.03;1.43;11.42;11.40;11.31;10.76;8.66;0.70
66725;SPS30;53638;51.062;5.804;2022-11-09T05:07:28;2.67;2.47;2.06;1.48;11.88;11.86;11.77;11.25;9.14;0.68
66725;SPS30;53638;51.062;5.804;2022-11-09T05:09:54;3.09;2.84;2.37;1.69;13.57;13.55;13.44;12.84;10.40;0.69
66725;SPS30;53638;51.062;5.804;2022-11-09T05:12:20;2.88;2.65;2.22;1.60;12.81;12.79;12.70;12.15;9.87;0.68
66725;SPS30;53638;51.062;5.804;2022-11-09T05:14:46;2.86;2.63;2.18;1.54;12.34;12.32;12.22;11.65;9.39;0.69
66725;SPS30;53638;51.062;5.804;2022-11-09T05:17:12;2.75;2.54;2.12;1.53;12.27;12.25;12.16;11.63;9.46;0.67
66725;SPS30;53638;51.062;5.804;2022-11-09T05:19:38;2.82;2.62;2.24;1.67;13.37;13.35;13.26;12.77;10.52;0.65
66725;SPS30;53638;51.062;5.804;2022-11-09T05:22:04;2.79;2.61;2.24;1.71;13.66;13.64;13.56;13.10;10.87;0.63
66725;SPS30;53638;51.062;5.804;2022-11-09T05:24:49;2.54;2.36;2.01;1.51;12.06;12.05;11.97;11.53;9.51;0.63
66725;SPS30;53638;51.062;5.804;2022-11-09T05:27:16;2.53;2.36;2.04;1.56;12.49;12.47;12.40;11.99;9.98;0.61
66725;SPS30;53638;51.062;5.804;2022-11-09T05:29:44;2.57;2.41;2.09;1.61;12.86;12.84;12.77;12.36;10.31;0.61
66725;SPS30;53638;51.062;5.804;2022-11-09T05:32:10;2.46;2.31;2.01;1.56;12.45;12.43;12.36;11.98;10.02;0.60
66725;SPS30;53638;51.062;5.804;2022-11-09T05:34:36;2.39;2.26;1.99;1.58;12.62;12.61;12.55;12.21;10.29;0.59
66725;SPS30;53638;51.062;5.804;2022-11-09T05:37:02;2.12;2.00;1.78;1.43;11.40;11.39;11.34;11.05;9.35;0.58
66725;SPS30;53638;51.062;5.804;2022-11-09T05:39:31;2.45;2.30;2.02;1.59;12.74;12.73;12.66;12.30;10.34;0.60
66725;SPS30;53638;51.062;5.804;2022-11-09T05:41:58;2.41;2.26;1.98;1.54;12.36;12.35;12.28;11.92;9.99;0.61
66725;SPS30;53638;51.062;5.804;2022-11-09T05:44:24;2.33;2.19;1.90;1.48;11.81;11.80;11.74;11.37;9.51;0.61
66725;SPS30;53638;51.062;5.804;2022-11-09T05:46:50;2.61;2.46;2.16;1.70;13.61;13.60;13.53;13.15;11.06;0.61
66725;SPS30;53638;51.062;5.804;2022-11-09T05:49:16;2.28;2.14;1.86;1.44;11.54;11.53;11.46;11.10;9.28;0.63
66725;SPS30;53638;51.062;5.804;2022-11-09T05:51:42;2.38;2.23;1.93;1.48;11.86;11.84;11.77;11.39;9.49;0.63
66725;SPS30;53638;51.062;5.804;2022-11-09T05:54:08;2.63;2.46;2.12;1.61;12.88;12.87;12.79;12.35;10.26;0.64
66725;SPS30;53638;51.062;5.804;2022-11-09T05:56:35;2.98;2.77;2.36;1.77;14.19;14.17;14.08;13.56;11.20;0.64
66725;SPS30;53638;51.062;5.804;2022-11-09T05:59:01;2.64;2.45;2.09;1.57;12.53;12.52;12.43;11.98;9.88;0.64
66725;SPS30;53638;51.062;5.804;2022-11-09T06:01:27;2.41;2.24;1.92;1.45;11.64;11.63;11.56;11.15;9.24;0.63
66725;SPS30;53638;51.062;5.804;2022-11-09T06:03:53;2.79;2.59;2.21;1.65;13.18;13.16;13.07;12.58;10.37;0.65
66725;SPS30;53638;51.062;5.804;2022-11-09T06:06:19;2.93;2.71;2.27;1.65;13.20;13.18;13.08;12.53;10.21;0.67
66725;SPS30;53638;51.062;5.804;2022-11-09T06:08:45;2.66;2.45;2.05;1.48;11.89;11.87;11.78;11.28;9.18;0.67
66725;SPS30;53638;51.062;5.804;2022-11-09T06:11:14;2.92;2.70;2.26;1.64;13.17;13.15;13.05;12.50;10.19;0.65
66725;SPS30;53638;51.062;5.804;2022-11-09T06:13:41;2.73;2.53;2.14;1.58;12.62;12.60;12.52;12.02;9.86;0.65
66725;SPS30;53638;51.062;5.804;2022-11-09T06:16:08;2.45;2.27;1.91;1.41;11.29;11.27;11.19;10.75;8.81;0.64
66725;SPS30;53638;51.062;5.804;2022-11-09T06:18:34;2.64;2.44;2.04;1.48;11.87;11.85;11.76;11.26;9.17;0.65
66725;SPS30;53638;51.062;5.804;2022-11-09T06:21:02;2.63;2.43;2.05;1.50;12.03;12.01;11.93;11.44;9.36;0.65
66725;SPS30;53638;51.062;5.804;2022-11-09T06:23:30;2.47;2.29;1.93;1.43;11.42;11.41;11.33;10.88;8.93;0.64
66725;SPS30;53638;51.062;5.804;2022-11-09T06:25:58;2.65;2.45;2.07;1.53;12.22;12.21;12.12;11.64;9.55;0.64
66725;SPS30;53638;51.062;5.804;2022-11-09T06:28:27;2.52;2.34;2.00;1.50;11.97;11.95;11.87;11.44;9.43;0.63
66725;SPS30;53638;51.062;5.804;2022-11-09T06:30:57;2.33;2.17;1.86;1.40;11.23;11.21;11.14;10.75;8.90;0.62
66725;SPS30;53638;51.062;5.804;2022-11-09T06:33:25;2.15;2.01;1.73;1.31;10.51;10.49;10.43;10.07;8.36;0.62
66725;SPS30;53638;51.062;5.804;2022-11-09T06:35:51;2.51;2.34;2.03;1.56;12.46;12.45;12.38;11.97;9.98;0.61
66725;SPS30;53638;51.062;5.804;2022-11-09T06:38:18;2.02;1.90;1.65;1.28;10.23;10.22;10.17;9.85;8.24;0.60
66725;SPS30;53638;51.062;5.804;2022-11-09T06:40:44;2.53;2.36;2.02;1.53;12.22;12.21;12.13;11.70;9.69;0.63
66725;SPS30;53638;51.062;5.804;2022-11-09T06:43:11;2.39;2.23;1.92;1.45;11.62;11.61;11.54;11.14;9.23;0.63
66725;SPS30;53638;51.062;5.804;2022-11-09T06:45:41;2.76;2.58;2.24;1.72;13.78;13.77;13.69;13.25;11.04;0.63
66725;SPS30;53638;51.062;5.804;2022-11-09T06:48:08;2.36;2.20;1.89;1.43;11.44;11.43;11.36;10.96;9.08;0.64
66725;SPS30;53638;51.062;5.804;2022-11-09T06:50:35;2.62;2.44;2.10;1.60;12.80;12.78;12.70;12.27;10.19;0.63
66725;SPS30;53638;51.062;5.804;2022-11-09T06:53:03;2.13;1.99;1.71;1.30;10.42;10.41;10.34;9.99;8.29;0.63
66725;SPS30;53638;51.062;5.804;2022-11-09T06:55:32;2.53;2.34;1.99;1.48;11.82;11.81;11.73;11.28;9.28;0.65
66725;SPS30;53638;51.062;5.804;2022-11-09T06:57:59;2.44;2.27;1.94;1.45;11.61;11.59;11.52;11.09;9.16;0.65
66725;SPS30;53638;51.062;5.804;2022-11-09T07:00:30;2.32;2.17;1.87;1.43;11.44;11.43;11.36;10.98;9.13;0.63
66725;SPS30;53638;51.062;5.804;2022-11-09T07:02:56;2.45;2.30;2.00;1.55;12.42;12.41;12.34;11.96;10.01;0.62
66725;SPS30;53638;51.062;5.804;2022-11-09T07:05:23;2.52;2.37;2.07;1.62;12.93;12.91;12.84;12.46;10.45;0.60
66725;SPS30;53638;51.062;5.804;2022-11-09T07:07:49;2.45;2.32;2.07;1.66;13.29;13.27;13.22;12.88;10.91;0.59
66725;SPS30;53638;51.062;5.804;2022-11-09T07:10:15;2.58;2.43;2.14;1.70;13.59;13.57;13.51;13.14;11.07;0.61
66725;SPS30;53638;51.062;5.804;2022-11-09T07:12:42;2.25;2.13;1.91;1.55;12.40;12.39;12.34;12.05;10.24;0.59
66725;SPS30;53638;51.062;5.804;2022-11-09T07:15:08;2.41;2.28;2.04;1.65;13.19;13.17;13.12;12.80;10.86;0.60
66725;SPS30;53638;51.062;5.804;2022-11-09T07:17:36;2.21;2.10;1.87;1.50;12.02;12.00;11.95;11.65;9.88;0.60
66725;SPS30;53638;51.062;5.804;2022-11-09T07:20:06;2.15;2.03;1.80;1.44;11.52;11.51;11.45;11.15;9.43;0.60
66725;SPS30;53638;51.062;5.804;2022-11-09T07:22:35;2.64;2.50;2.23;1.80;14.39;14.38;14.31;13.96;11.84;0.59
66725;SPS30;53638;51.062;5.804;2022-11-09T07:25:08;2.54;2.40;2.11;1.66;13.32;13.30;13.24;12.87;10.83;0.60
66725;SPS30;53638;51.062;5.804;2022-11-09T07:27:36;2.13;2.00;1.76;1.40;11.17;11.16;11.10;10.80;9.09;0.60
66725;SPS30;53638;51.062;5.804;2022-11-09T07:30:02;2.47;2.32;2.02;1.58;12.63;12.61;12.55;12.17;10.20;0.61
66725;SPS30;53638;51.062;5.804;2022-11-09T07:32:33;2.44;2.30;2.04;1.63;13.00;12.99;12.93;12.59;10.64;0.58
66725;SPS30;53638;51.062;5.804;2022-11-09T07:35:00;1.90;1.81;1.63;1.34;10.70;10.69;10.65;10.42;8.89;0.56
66725;SPS30;53638;51.062;5.804;2022-11-09T07:37:26;1.97;1.89;1.72;1.43;11.43;11.42;11.38;11.16;9.56;0.55
66725;SPS30;53638;51.062;5.804;2022-11-09T07:39:52;2.22;2.12;1.91;1.57;12.59;12.58;12.53;12.27;10.47;0.57
66725;SPS30;53638;51.062;5.804;2022-11-09T07:42:18;2.45;2.33;2.10;1.72;13.75;13.74;13.69;13.39;11.41;0.57
66725;SPS30;53638;51.062;5.804;2022-11-09T07:44:45;2.53;2.40;2.14;1.72;13.79;13.78;13.72;13.38;11.34;0.58
66725;SPS30;53638;51.062;5.804;2022-11-09T07:47:11;2.38;2.25;2.00;1.59;12.75;12.74;12.68;12.35;10.44;0.59
66725;SPS30;53638;51.062;5.804;2022-11-09T07:49:39;2.36;2.23;1.98;1.58;12.67;12.65;12.60;12.27;10.38;0.60
66725;SPS30;53638;51.062;5.804;2022-11-09T07:52:05;2.47;2.35;2.12;1.75;13.97;13.96;13.91;13.61;11.62;0.59
66725;SPS30;53638;51.062;5.804;2022-11-09T07:54:34;2.05;1.96;1.77;1.46;11.66;11.65;11.60;11.36;9.70;0.59
66725;SPS30;53638;51.062;5.804;2022-11-09T07:57:01;2.28;2.17;1.95;1.60;12.80;12.79;12.74;12.46;10.62;0.60
66725;SPS30;53638;51.062;5.804;2022-11-09T07:59:27;2.24;2.12;1.89;1.53;12.25;12.24;12.19;11.90;10.10;0.60
66725;SPS30;53638;51.062;5.804;2022-11-09T08:01:56;2.08;1.97;1.76;1.43;11.41;11.40;11.35;11.08;9.40;0.60
66725;SPS30;53638;51.062;5.804;2022-11-09T08:04:22;2.40;2.26;1.99;1.57;12.59;12.57;12.51;12.17;10.25;0.60
66725;SPS30;53638;51.062;5.804;2022-11-09T08:06:52;2.54;2.38;2.07;1.60;12.83;12.82;12.74;12.35;10.32;0.62
66725;SPS30;53638;51.062;5.804;2022-11-09T08:09:18;2.67;2.50;2.16;1.66;13.25;13.23;13.15;12.72;10.59;0.64
66725;SPS30;53638;51.062;5.804;2022-11-09T08:11:45;2.71;2.51;2.13;1.58;12.66;12.65;12.56;12.08;9.93;0.66
66725;SPS30;53638;51.062;5.804;2022-11-09T08:14:11;2.51;2.35;2.02;1.55;12.39;12.38;12.30;11.89;9.89;0.63
66725;SPS30;53638;51.062;5.804;2022-11-09T08:16:38;2.62;2.44;2.11;1.61;12.85;12.84;12.76;12.33;10.25;0.63
66725;SPS30;53638;51.062;5.804;2022-11-09T08:19:04;2.77;2.58;2.20;1.65;13.20;13.19;13.10;12.62;10.42;0.65
66725;SPS30;53638;51.062;5.804;2022-11-09T08:21:34;2.85;2.64;2.23;1.63;13.08;13.06;12.97;12.45;10.19;0.67
66725;SPS30;53638;51.062;5.804;2022-11-09T08:24:00;2.74;2.54;2.15;1.59;12.71;12.70;12.61;12.11;9.94;0.66
66725;SPS30;53638;51.062;5.804;2022-11-09T08:26:26;2.95;2.75;2.34;1.75;14.02;14.00;13.91;13.39;11.05;0.64
66725;SPS30;53638;51.062;5.804;2022-11-09T08:28:52;2.63;2.45;2.08;1.55;12.44;12.42;12.34;11.88;9.79;0.66
66725;SPS30;53638;51.062;5.804;2022-11-09T08:31:21;2.56;2.38;2.03;1.52;12.19;12.17;12.09;11.65;9.61;0.65
66725;SPS30;53638;51.062;5.804;2022-11-09T08:33:53;2.83;2.63;2.24;1.67;13.35;13.33;13.24;12.74;10.49;0.63
66725;SPS30;53638;51.062;5.804;2022-11-09T08:36:19;2.84;2.64;2.23;1.64;13.15;13.14;13.04;12.53;10.28;0.63
66725;SPS30;53638;51.062;5.804;2022-11-09T08:38:45;2.60;2.41;2.04;1.51;12.11;12.09;12.01;11.54;9.48;0.63
66725;SPS30;53638;51.062;5.804;2022-11-09T08:41:14;2.91;2.69;2.25;1.64;13.13;13.11;13.02;12.47;10.18;0.64
66725;SPS30;53638;51.062;5.804;2022-11-09T08:43:40;2.79;2.59;2.21;1.65;13.18;13.17;13.08;12.59;10.38;0.63
66725;SPS30;53638;51.062;5.804;2022-11-09T08:46:06;2.58;2.41;2.08;1.59;12.74;12.73;12.65;12.23;10.18;0.61
66725;SPS30;53638;51.062;5.804;2022-11-09T08:48:33;2.80;2.62;2.27;1.75;13.97;13.95;13.87;13.42;11.19;0.61
66725;SPS30;53638;51.062;5.804;2022-11-09T08:50:59;2.81;2.62;2.25;1.71;13.65;13.64;13.55;13.08;10.84;0.62
66725;SPS30;53638;51.062;5.804;2022-11-09T08:53:26;2.66;2.47;2.11;1.58;12.62;12.61;12.52;12.06;9.95;0.65
66725;SPS30;53638;51.062;5.804;2022-11-09T08:55:55;3.34;3.07;2.55;1.82;14.61;14.58;14.47;13.81;11.18;0.69
66725;SPS30;53638;51.062;5.804;2022-11-09T08:58:26;2.87;2.65;2.21;1.58;12.68;12.66;12.56;12.01;9.74;0.67
66725;SPS30;53638;51.062;5.804;2022-11-09T09:00:52;2.96;2.72;2.25;1.59;12.72;12.70;12.59;12.00;9.67;0.68
66725;SPS30;53638;51.062;5.804;2022-11-09T09:03:21;3.29;3.01;2.47;1.71;13.72;13.70;13.57;12.89;10.30;0.69
66725;SPS30;53638;51.062;5.804;2022-11-09T09:05:53;3.05;2.79;2.29;1.60;12.81;12.78;12.67;12.04;9.65;0.69
66725;SPS30;53638;51.062;5.804;2022-11-09T09:08:24;3.60;3.30;2.71;1.88;15.10;15.07;14.94;14.19;11.37;0.70
66725;SPS30;53638;51.062;5.804;2022-11-09T09:10:50;3.39;3.09;2.49;1.67;13.39;13.36;13.23;12.48;9.83;0.73
66725;SPS30;53638;51.062;5.804;2022-11-09T09:13:16;3.66;3.34;2.71;1.85;14.86;14.84;14.70;13.91;11.05;0.71
66725;SPS30;53638;51.062;5.804;2022-11-09T09:15:45;3.08;2.81;2.29;1.57;12.56;12.54;12.42;11.77;9.36;0.72
66725;SPS30;53638;51.062;5.804;2022-11-09T09:18:13;3.19;2.90;2.34;1.57;12.59;12.56;12.44;11.73;9.24;0.73
66725;SPS30;53638;51.062;5.804;2022-11-09T09:20:39;4.21;3.81;3.03;1.98;15.85;15.81;15.64;14.67;11.39;0.74
66725;SPS30;53638;51.062;5.804;2022-11-09T09:23:05;3.81;3.43;2.69;1.70;13.62;13.59;13.43;12.50;9.54;0.75
66725;SPS30;53638;51.062;5.804;2022-11-09T09:25:31;3.33;3.00;2.35;1.47;11.82;11.79;11.65;10.83;8.25;0.76
66725;SPS30;53638;51.062;5.804;2022-11-09T09:27:58;3.38;3.05;2.40;1.54;12.32;12.29;12.15;11.35;8.72;0.73
66725;SPS30;53638;51.062;5.804;2022-11-09T09:30:24;3.72;3.34;2.61;1.63;13.07;13.04;12.87;11.96;9.07;0.75